Terminal Aerodrome Forecast
Issued by NWS Grand Forks, ND

Home | Current Version | Previous Version | Graphics & Text | Print | Product List | Glossary On
Versions: 1 2 3 4 5 6 7 8 9 10 11 12 13 14 15 16 17 18 19 20 21 22 23 24
000
FTUS43 KFGF 250300 AAA
TAFFAR
TAF AMD
KFAR 250359Z 2504/2524 01009KT 4SM -SN BR OVC050
      TEMPO 2506/2510 BKN015
     FM251000 36007KT P6SM BKN020
     FM251900 VRB03KT P6SM BKN050
     FM252100 19005KT P6SM BKN100=

USA.gov is the U.S. government's official web portal to all federal, state and local government web resources and services.